sensor_id;sensor_type;location;lat;lon;timestamp;temperature;humidity
72952;HTU21D;61102;51.956;5.878;2022-11-13T00:00:13;11.19;59.25
72952;HTU21D;61102;51.956;5.878;2022-11-13T00:02:57;11.23;59.28
72952;HTU21D;61102;51.956;5.878;2022-11-13T00:05:42;11.27;59.23
72952;HTU21D;61102;51.956;5.878;2022-11-13T00:08:27;11.31;59.16
72952;HTU21D;61102;51.956;5.878;2022-11-13T00:11:14;11.33;59.20
72952;HTU21D;61102;51.956;5.878;2022-11-13T00:14:01;11.37;59.12
72952;HTU21D;61102;51.956;5.878;2022-11-13T00:16:46;11.39;59.13
72952;HTU21D;61102;51.956;5.878;2022-11-13T00:19:31;11.43;59.06
72952;HTU21D;61102;51.956;5.878;2022-11-13T00:22:15;11.48;59.12
72952;HTU21D;61102;51.956;5.878;2022-11-13T00:24:59;11.53;59.16
72952;HTU21D;61102;51.956;5.878;2022-11-13T00:27:44;11.56;59.19
72952;HTU21D;61102;51.956;5.878;2022-11-13T00:30:28;11.58;59.11
72952;HTU21D;61102;51.956;5.878;2022-11-13T00:33:13;11.59;59.12
72952;HTU21D;61102;51.956;5.878;2022-11-13T00:36:19;11.67;59.23
72952;HTU21D;61102;51.956;5.878;2022-11-13T00:39:04;11.64;59.13
72952;HTU21D;61102;51.956;5.878;2022-11-13T00:41:48;11.64;59.28
72952;HTU21D;61102;51.956;5.878;2022-11-13T00:44:33;11.66;59.29
72952;HTU21D;61102;51.956;5.878;2022-11-13T00:47:17;11.67;59.26
72952;HTU21D;61102;51.956;5.878;2022-11-13T00:50:02;11.63;59.28
72952;HTU21D;61102;51.956;5.878;2022-11-13T00:52:46;11.61;59.34
72952;HTU21D;61102;51.956;5.878;2022-11-13T00:55:31;11.60;59.43
72952;HTU21D;61102;51.956;5.878;2022-11-13T00:58:16;11.62;59.51
72952;HTU21D;61102;51.956;5.878;2022-11-13T01:01:09;11.66;59.82
72952;HTU21D;61102;51.956;5.878;2022-11-13T01:03:54;11.66;59.54
72952;HTU21D;61102;51.956;5.878;2022-11-13T01:06:39;11.62;59.73
72952;HTU21D;61102;51.956;5.878;2022-11-13T01:09:24;11.61;59.80
72952;HTU21D;61102;51.956;5.878;2022-11-13T01:12:08;11.60;59.79
72952;HTU21D;61102;51.956;5.878;2022-11-13T01:14:52;11.59;59.83
72952;HTU21D;61102;51.956;5.878;2022-11-13T01:17:37;11.56;59.77
72952;HTU21D;61102;51.956;5.878;2022-11-13T01:20:23;11.51;59.71
72952;HTU21D;61102;51.956;5.878;2022-11-13T01:23:07;11.45;59.68
72952;HTU21D;61102;51.956;5.878;2022-11-13T01:25:52;11.40;59.75
72952;HTU21D;61102;51.956;5.878;2022-11-13T01:28:37;11.36;59.71
72952;HTU21D;61102;51.956;5.878;2022-11-13T01:31:27;11.32;59.96
72952;HTU21D;61102;51.956;5.878;2022-11-13T01:34:12;11.30;59.70
72952;HTU21D;61102;51.956;5.878;2022-11-13T01:36:57;11.27;59.96
72952;HTU21D;61102;51.956;5.878;2022-11-13T01:39:41;11.28;59.93
72952;HTU21D;61102;51.956;5.878;2022-11-13T01:42:26;11.28;59.93
72952;HTU21D;61102;51.956;5.878;2022-11-13T01:48:41;11.26;60.04
72952;HTU21D;61102;51.956;5.878;2022-11-13T01:51:35;11.26;60.05
72952;HTU21D;61102;51.956;5.878;2022-11-13T01:54:28;11.24;59.99
72952;HTU21D;61102;51.956;5.878;2022-11-13T01:57:15;11.18;59.76
72952;HTU21D;61102;51.956;5.878;2022-11-13T02:00:08;11.17;59.92
72952;HTU21D;61102;51.956;5.878;2022-11-13T02:02:54;11.15;59.70
72952;HTU21D;61102;51.956;5.878;2022-11-13T02:05:38;11.12;59.84
72952;HTU21D;61102;51.956;5.878;2022-11-13T02:08:23;11.11;59.90
72952;HTU21D;61102;51.956;5.878;2022-11-13T02:11:08;11.12;59.83
72952;HTU21D;61102;51.956;5.878;2022-11-13T02:13:52;11.12;60.09
72952;HTU21D;61102;51.956;5.878;2022-11-13T02:16:38;11.16;60.20
72952;HTU21D;61102;51.956;5.878;2022-11-13T02:19:36;11.25;60.25
72952;HTU21D;61102;51.956;5.878;2022-11-13T02:22:30;11.30;60.14
72952;HTU21D;61102;51.956;5.878;2022-11-13T02:25:18;11.30;59.99
72952;HTU21D;61102;51.956;5.878;2022-11-13T02:28:03;11.34;59.80
72952;HTU21D;61102;51.956;5.878;2022-11-13T02:30:47;11.32;59.71
72952;HTU21D;61102;51.956;5.878;2022-11-13T02:33:32;11.26;59.70
72952;HTU21D;61102;51.956;5.878;2022-11-13T02:36:19;11.23;59.76
72952;HTU21D;61102;51.956;5.878;2022-11-13T02:39:08;11.20;59.74
72952;HTU21D;61102;51.956;5.878;2022-11-13T02:41:52;11.17;59.64
72952;HTU21D;61102;51.956;5.878;2022-11-13T02:44:37;11.17;59.59
72952;HTU21D;61102;51.956;5.878;2022-11-13T02:47:22;11.16;59.68
72952;HTU21D;61102;51.956;5.878;2022-11-13T02:50:07;11.15;59.72
72952;HTU21D;61102;51.956;5.878;2022-11-13T02:52:52;11.17;59.62
72952;HTU21D;61102;51.956;5.878;2022-11-13T02:55:36;11.16;59.61
72952;HTU21D;61102;51.956;5.878;2022-11-13T02:58:21;11.17;59.60
72952;HTU21D;61102;51.956;5.878;2022-11-13T03:01:06;11.17;59.62
72952;HTU21D;61102;51.956;5.878;2022-11-13T03:03:50;11.15;59.58
72952;HTU21D;61102;51.956;5.878;2022-11-13T03:06:35;11.15;59.57
72952;HTU21D;61102;51.956;5.878;2022-11-13T03:09:19;11.14;59.54
72952;HTU21D;61102;51.956;5.878;2022-11-13T03:12:06;11.13;59.60
72952;HTU21D;61102;51.956;5.878;2022-11-13T03:14:51;11.13;59.53
72952;HTU21D;61102;51.956;5.878;2022-11-13T03:17:35;11.15;59.57
72952;HTU21D;61102;51.956;5.878;2022-11-13T03:20:20;11.15;59.61
72952;HTU21D;61102;51.956;5.878;2022-11-13T03:23:04;11.16;59.59
72952;HTU21D;61102;51.956;5.878;2022-11-13T03:25:49;11.15;59.55
72952;HTU21D;61102;51.956;5.878;2022-11-13T03:28:34;11.16;59.63
72952;HTU21D;61102;51.956;5.878;2022-11-13T03:31:19;11.17;59.69
72952;HTU21D;61102;51.956;5.878;2022-11-13T03:34:07;11.19;59.89
72952;HTU21D;61102;51.956;5.878;2022-11-13T03:36:52;11.22;59.77
72952;HTU21D;61102;51.956;5.878;2022-11-13T03:39:36;11.24;59.80
72952;HTU21D;61102;51.956;5.878;2022-11-13T03:42:21;11.28;59.80
72952;HTU21D;61102;51.956;5.878;2022-11-13T03:45:06;11.29;59.80
72952;HTU21D;61102;51.956;5.878;2022-11-13T03:47:50;11.30;59.72
72952;HTU21D;61102;51.956;5.878;2022-11-13T03:50:35;11.30;59.72
72952;HTU21D;61102;51.956;5.878;2022-11-13T03:53:20;11.28;59.76
72952;HTU21D;61102;51.956;5.878;2022-11-13T03:56:04;11.26;59.75
72952;HTU21D;61102;51.956;5.878;2022-11-13T03:58:49;11.22;59.73
72952;HTU21D;61102;51.956;5.878;2022-11-13T04:01:33;11.19;59.70
72952;HTU21D;61102;51.956;5.878;2022-11-13T04:04:18;11.17;59.67
72952;HTU21D;61102;51.956;5.878;2022-11-13T04:07:03;11.15;59.62
72952;HTU21D;61102;51.956;5.878;2022-11-13T04:09:47;11.11;59.57
72952;HTU21D;61102;51.956;5.878;2022-11-13T04:12:31;11.08;59.62
72952;HTU21D;61102;51.956;5.878;2022-11-13T04:15:16;11.04;59.64
72952;HTU21D;61102;51.956;5.878;2022-11-13T04:18:01;11.04;59.58
72952;HTU21D;61102;51.956;5.878;2022-11-13T04:20:46;11.01;59.63
72952;HTU21D;61102;51.956;5.878;2022-11-13T04:23:31;11.01;59.66
72952;HTU21D;61102;51.956;5.878;2022-11-13T04:26:16;11.02;59.61
72952;HTU21D;61102;51.956;5.878;2022-11-13T04:29:00;11.00;59.60
72952;HTU21D;61102;51.956;5.878;2022-11-13T04:31:44;10.99;59.56
72952;HTU21D;61102;51.956;5.878;2022-11-13T04:34:29;10.97;59.56
72952;HTU21D;61102;51.956;5.878;2022-11-13T04:37:14;10.93;59.44
72952;HTU21D;61102;51.956;5.878;2022-11-13T04:39:58;10.87;59.44
72952;HTU21D;61102;51.956;5.878;2022-11-13T04:42:43;10.82;59.44
72952;HTU21D;61102;51.956;5.878;2022-11-13T04:45:33;10.70;59.48
72952;HTU21D;61102;51.956;5.878;2022-11-13T04:48:18;10.63;59.47
72952;HTU21D;61102;51.956;5.878;2022-11-13T04:51:04;10.57;59.51
72952;HTU21D;61102;51.956;5.878;2022-11-13T04:53:49;10.51;59.51
72952;HTU21D;61102;51.956;5.878;2022-11-13T04:56:33;10.45;59.58
72952;HTU21D;61102;51.956;5.878;2022-11-13T04:59:18;10.42;59.54
72952;HTU21D;61102;51.956;5.878;2022-11-13T05:02:03;10.39;59.61
72952;HTU21D;61102;51.956;5.878;2022-11-13T05:04:51;10.37;59.54
72952;HTU21D;61102;51.956;5.878;2022-11-13T05:07:35;10.33;59.49
72952;HTU21D;61102;51.956;5.878;2022-11-13T05:10:20;10.27;59.51
72952;HTU21D;61102;51.956;5.878;2022-11-13T05:13:05;10.26;59.51
72952;HTU21D;61102;51.956;5.878;2022-11-13T05:15:50;10.22;59.54
72952;HTU21D;61102;51.956;5.878;2022-11-13T05:18:36;10.18;59.50
72952;HTU21D;61102;51.956;5.878;2022-11-13T05:21:20;10.14;59.46
72952;HTU21D;61102;51.956;5.878;2022-11-13T05:24:05;10.08;59.52
72952;HTU21D;61102;51.956;5.878;2022-11-13T05:26:50;10.00;59.61
72952;HTU21D;61102;51.956;5.878;2022-11-13T05:29:35;9.97;59.58
72952;HTU21D;61102;51.956;5.878;2022-11-13T05:32:19;9.94;59.58
72952;HTU21D;61102;51.956;5.878;2022-11-13T05:35:04;9.89;59.61
72952;HTU21D;61102;51.956;5.878;2022-11-13T05:37:48;9.86;59.60
72952;HTU21D;61102;51.956;5.878;2022-11-13T05:40:33;9.82;59.67
72952;HTU21D;61102;51.956;5.878;2022-11-13T05:43:18;9.80;59.66
72952;HTU21D;61102;51.956;5.878;2022-11-13T05:46:23;9.83;59.78
72952;HTU21D;61102;51.956;5.878;2022-11-13T05:49:08;9.78;59.49
72952;HTU21D;61102;51.956;5.878;2022-11-13T05:51:54;9.76;59.55
72952;HTU21D;61102;51.956;5.878;2022-11-13T05:54:41;9.70;59.75
72952;HTU21D;61102;51.956;5.878;2022-11-13T05:57:25;9.67;59.79
72952;HTU21D;61102;51.956;5.878;2022-11-13T06:00:10;9.65;59.85
72952;HTU21D;61102;51.956;5.878;2022-11-13T06:02:55;9.62;59.83
72952;HTU21D;61102;51.956;5.878;2022-11-13T06:05:39;9.60;59.79
72952;HTU21D;61102;51.956;5.878;2022-11-13T06:08:25;9.56;59.82
72952;HTU21D;61102;51.956;5.878;2022-11-13T06:11:13;9.54;59.88
72952;HTU21D;61102;51.956;5.878;2022-11-13T06:13:58;9.49;59.90
72952;HTU21D;61102;51.956;5.878;2022-11-13T06:16:43;9.47;59.90
72952;HTU21D;61102;51.956;5.878;2022-11-13T06:19:27;9.42;59.87
72952;HTU21D;61102;51.956;5.878;2022-11-13T06:22:12;9.39;59.86
72952;HTU21D;61102;51.956;5.878;2022-11-13T06:24:56;9.35;59.83
72952;HTU21D;61102;51.956;5.878;2022-11-13T06:27:40;9.33;59.88
72952;HTU21D;61102;51.956;5.878;2022-11-13T06:30:25;9.34;59.82
72952;HTU21D;61102;51.956;5.878;2022-11-13T06:33:09;9.34;59.92
72952;HTU21D;61102;51.956;5.878;2022-11-13T06:35:54;9.36;59.86
72952;HTU21D;61102;51.956;5.878;2022-11-13T06:38:39;9.35;59.91
72952;HTU21D;61102;51.956;5.878;2022-11-13T06:41:28;9.39;60.10
72952;HTU21D;61102;51.956;5.878;2022-11-13T06:44:14;9.44;60.03
72952;HTU21D;61102;51.956;5.878;2022-11-13T06:46:58;9.48;60.28
72952;HTU21D;61102;51.956;5.878;2022-11-13T06:49:43;9.55;60.23
72952;HTU21D;61102;51.956;5.878;2022-11-13T06:52:27;9.63;60.12
72952;HTU21D;61102;51.956;5.878;2022-11-13T06:55:12;9.70;60.15
72952;HTU21D;61102;51.956;5.878;2022-11-13T06:57:56;9.77;60.27
72952;HTU21D;61102;51.956;5.878;2022-11-13T07:00:43;9.83;60.30
72952;HTU21D;61102;51.956;5.878;2022-11-13T07:03:27;9.93;60.18
72952;HTU21D;61102;51.956;5.878;2022-11-13T07:06:15;9.97;60.15
72952;HTU21D;61102;51.956;5.878;2022-11-13T07:09:01;10.04;59.98
72952;HTU21D;61102;51.956;5.878;2022-11-13T07:11:45;10.07;59.92
72952;HTU21D;61102;51.956;5.878;2022-11-13T07:14:30;10.10;59.86
72952;HTU21D;61102;51.956;5.878;2022-11-13T07:17:14;10.14;59.83
72952;HTU21D;61102;51.956;5.878;2022-11-13T07:19:59;10.19;59.76
72952;HTU21D;61102;51.956;5.878;2022-11-13T07:22:43;10.22;59.76
72952;HTU21D;61102;51.956;5.878;2022-11-13T07:25:29;10.25;59.77
72952;HTU21D;61102;51.956;5.878;2022-11-13T07:28:14;10.30;59.64
72952;HTU21D;61102;51.956;5.878;2022-11-13T07:30:58;10.36;59.56
72952;HTU21D;61102;51.956;5.878;2022-11-13T07:33:43;10.36;59.48
72952;HTU21D;61102;51.956;5.878;2022-11-13T07:36:28;10.37;59.41
72952;HTU21D;61102;51.956;5.878;2022-11-13T07:39:12;10.39;59.40
72952;HTU21D;61102;51.956;5.878;2022-11-13T07:41:57;10.43;59.38
72952;HTU21D;61102;51.956;5.878;2022-11-13T07:44:42;10.46;59.39
72952;HTU21D;61102;51.956;5.878;2022-11-13T07:47:26;10.52;59.40
72952;HTU21D;61102;51.956;5.878;2022-11-13T07:50:11;10.59;59.37
72952;HTU21D;61102;51.956;5.878;2022-11-13T07:52:58;10.64;59.46
72952;HTU21D;61102;51.956;5.878;2022-11-13T07:55:43;11.16;58.05
72952;HTU21D;61102;51.956;5.878;2022-11-13T07:58:29;10.88;58.81
72952;HTU21D;61102;51.956;5.878;2022-11-13T08:01:14;10.88;58.91
72952;HTU21D;61102;51.956;5.878;2022-11-13T08:03:58;10.92;58.88
72952;HTU21D;61102;51.956;5.878;2022-11-13T08:06:43;10.99;58.85
72952;HTU21D;61102;51.956;5.878;2022-11-13T08:09:28;11.08;58.69
72952;HTU21D;61102;51.956;5.878;2022-11-13T08:12:13;11.14;58.68
72952;HTU21D;61102;51.956;5.878;2022-11-13T08:14:57;11.22;58.62
72952;HTU21D;61102;51.956;5.878;2022-11-13T08:17:42;11.29;58.51
72952;HTU21D;61102;51.956;5.878;2022-11-13T08:20:28;11.34;58.29
72952;HTU21D;61102;51.956;5.878;2022-11-13T08:23:13;11.46;58.00
72952;HTU21D;61102;51.956;5.878;2022-11-13T08:26:03;11.56;58.04
72952;HTU21D;61102;51.956;5.878;2022-11-13T08:28:48;11.66;57.71
72952;HTU21D;61102;51.956;5.878;2022-11-13T08:31:32;11.72;57.52
72952;HTU21D;61102;51.956;5.878;2022-11-13T08:34:17;11.82;57.48
72952;HTU21D;61102;51.956;5.878;2022-11-13T08:37:01;11.89;57.31
72952;HTU21D;61102;51.956;5.878;2022-11-13T08:39:45;11.98;57.20
72952;HTU21D;61102;51.956;5.878;2022-11-13T08:42:30;12.07;57.03
72952;HTU21D;61102;51.956;5.878;2022-11-13T08:45:15;12.13;56.74
72952;HTU21D;61102;51.956;5.878;2022-11-13T08:48:00;12.21;56.64
72952;HTU21D;61102;51.956;5.878;2022-11-13T08:50:45;12.32;56.40
72952;HTU21D;61102;51.956;5.878;2022-11-13T08:53:30;12.42;55.92
72952;HTU21D;61102;51.956;5.878;2022-11-13T08:56:14;12.50;56.12
72952;HTU21D;61102;51.956;5.878;2022-11-13T08:58:59;12.61;55.99
72952;HTU21D;61102;51.956;5.878;2022-11-13T09:01:44;12.71;55.86
72952;HTU21D;61102;51.956;5.878;2022-11-13T09:04:28;12.81;55.74
72952;HTU21D;61102;51.956;5.878;2022-11-13T09:07:13;12.89;55.65
72952;HTU21D;61102;51.956;5.878;2022-11-13T09:09:58;13.01;55.61
72952;HTU21D;61102;51.956;5.878;2022-11-13T09:12:44;13.12;55.39
72952;HTU21D;61102;51.956;5.878;2022-11-13T09:15:30;13.19;55.34
72952;HTU21D;61102;51.956;5.878;2022-11-13T09:18:15;13.32;55.14
72952;HTU21D;61102;51.956;5.878;2022-11-13T09:21:00;13.43;54.91
72952;HTU21D;61102;51.956;5.878;2022-11-13T09:23:46;13.53;54.30
72952;HTU21D;61102;51.956;5.878;2022-11-13T09:26:31;13.65;54.44
72952;HTU21D;61102;51.956;5.878;2022-11-13T09:29:20;13.79;54.24
72952;HTU21D;61102;51.956;5.878;2022-11-13T09:32:06;13.94;54.19
72952;HTU21D;61102;51.956;5.878;2022-11-13T09:34:51;14.10;53.76
72952;HTU21D;61102;51.956;5.878;2022-11-13T09:37:36;14.24;53.76
72952;HTU21D;61102;51.956;5.878;2022-11-13T09:40:29;14.42;53.33
72952;HTU21D;61102;51.956;5.878;2022-11-13T09:43:40;14.63;52.91
72952;HTU21D;61102;51.956;5.878;2022-11-13T09:46:35;14.71;52.77
72952;HTU21D;61102;51.956;5.878;2022-11-13T09:49:28;14.86;52.82
72952;HTU21D;61102;51.956;5.878;2022-11-13T09:52:21;14.96;52.28
72952;HTU21D;61102;51.956;5.878;2022-11-13T09:55:13;15.10;52.04
72952;HTU21D;61102;51.956;5.878;2022-11-13T09:59:31;15.37;51.85
72952;HTU21D;61102;51.956;5.878;2022-11-13T10:08:17;15.53;51.10
72952;HTU21D;61102;51.956;5.878;2022-11-13T10:14:28;15.81;51.41
72952;HTU21D;61102;51.956;5.878;2022-11-13T10:17:32;15.97;51.25
72952;HTU21D;61102;51.956;5.878;2022-11-13T10:20:28;15.99;50.48
72952;HTU21D;61102;51.956;5.878;2022-11-13T10:23:17;16.02;50.49
72952;HTU21D;61102;51.956;5.878;2022-11-13T10:26:16;16.16;50.47
72952;HTU21D;61102;51.956;5.878;2022-11-13T10:29:12;16.22;50.10
72952;HTU21D;61102;51.956;5.878;2022-11-13T10:31:57;16.30;49.76
72952;HTU21D;61102;51.956;5.878;2022-11-13T10:34:50;16.36;50.08
72952;HTU21D;61102;51.956;5.878;2022-11-13T10:40:37;16.50;49.17
72952;HTU21D;61102;51.956;5.878;2022-11-13T10:43:24;16.57;49.11
72952;HTU21D;61102;51.956;5.878;2022-11-13T10:46:18;16.69;48.96
72952;HTU21D;61102;51.956;5.878;2022-11-13T10:49:19;16.73;47.97
72952;HTU21D;61102;51.956;5.878;2022-11-13T10:52:19;16.75;47.11
72952;HTU21D;61102;51.956;5.878;2022-11-13T10:58:18;16.77;47.32
72952;HTU21D;61102;51.956;5.878;2022-11-13T11:01:21;16.88;47.77
72952;HTU21D;61102;51.956;5.878;2022-11-13T11:04:24;16.92;47.89
72952;HTU21D;61102;51.956;5.878;2022-11-13T11:07:22;16.93;48.02
72952;HTU21D;61102;51.956;5.878;2022-11-13T11:10:29;17.05;48.05
72952;HTU21D;61102;51.956;5.878;2022-11-13T11:13:21;17.06;48.20
72952;HTU21D;61102;51.956;5.878;2022-11-13T11:16:07;17.06;47.86
72952;HTU21D;61102;51.956;5.878;2022-11-13T11:18:59;17.09;48.10
72952;HTU21D;61102;51.956;5.878;2022-11-13T11:21:45;17.15;48.05
72952;HTU21D;61102;51.956;5.878;2022-11-13T11:24:35;17.19;47.60
72952;HTU21D;61102;51.956;5.878;2022-11-13T11:27:27;17.22;47.68
72952;HTU21D;61102;51.956;5.878;2022-11-13T11:30:23;17.30;47.86
72952;HTU21D;61102;51.956;5.878;2022-11-13T11:33:27;17.25;47.63
72952;HTU21D;61102;51.956;5.878;2022-11-13T11:36:30;17.26;47.60
72952;HTU21D;61102;51.956;5.878;2022-11-13T11:42:33;17.36;47.54
72952;HTU21D;61102;51.956;5.878;2022-11-13T11:45:40;17.45;47.66
72952;HTU21D;61102;51.956;5.878;2022-11-13T11:48:28;17.39;47.43
72952;HTU21D;61102;51.956;5.878;2022-11-13T11:51:39;17.48;47.31
72952;HTU21D;61102;51.956;5.878;2022-11-13T11:54:42;17.51;47.03
72952;HTU21D;61102;51.956;5.878;2022-11-13T11:57:58;17.64;47.21
72952;HTU21D;61102;51.956;5.878;2022-11-13T12:00:53;17.64;47.43
72952;HTU21D;61102;51.956;5.878;2022-11-13T12:07:04;17.91;47.54
72952;HTU21D;61102;51.956;5.878;2022-11-13T12:10:10;18.02;47.52
72952;HTU21D;61102;51.956;5.878;2022-11-13T12:16:15;18.19;47.27
72952;HTU21D;61102;51.956;5.878;2022-11-13T12:19:25;18.34;47.05
72952;HTU21D;61102;51.956;5.878;2022-11-13T12:25:28;18.41;47.34
72952;HTU21D;61102;51.956;5.878;2022-11-13T12:28:20;18.46;47.03
72952;HTU21D;61102;51.956;5.878;2022-11-13T12:34:31;18.61;46.64
72952;HTU21D;61102;51.956;5.878;2022-11-13T12:37:38;18.64;46.61
72952;HTU21D;61102;51.956;5.878;2022-11-13T12:40:33;18.67;46.27
72952;HTU21D;61102;51.956;5.878;2022-11-13T12:46:21;18.82;45.65
72952;HTU21D;61102;51.956;5.878;2022-11-13T12:49:27;19.11;45.52
72952;HTU21D;61102;51.956;5.878;2022-11-13T12:52:18;19.35;45.08
72952;HTU21D;61102;51.956;5.878;2022-11-13T12:55:24;19.83;44.18
72952;HTU21D;61102;51.956;5.878;2022-11-13T12:58:19;19.95;43.69
72952;HTU21D;61102;51.956;5.878;2022-11-13T13:01:16;20.16;43.54
72952;HTU21D;61102;51.956;5.878;2022-11-13T13:10:25;21.51;40.22
72952;HTU21D;61102;51.956;5.878;2022-11-13T13:16:07;22.12;39.17
72952;HTU21D;61102;51.956;5.878;2022-11-13T13:18:52;22.41;38.34
72952;HTU21D;61102;51.956;5.878;2022-11-13T13:21:48;22.83;37.11
72952;HTU21D;61102;51.956;5.878;2022-11-13T13:24:37;23.67;36.36
72952;HTU21D;61102;51.956;5.878;2022-11-13T13:27:35;24.49;34.88
72952;HTU21D;61102;51.956;5.878;2022-11-13T13:30:22;25.04;33.99
72952;HTU21D;61102;51.956;5.878;2022-11-13T13:33:19;25.14;34.08
72952;HTU21D;61102;51.956;5.878;2022-11-13T13:36:30;25.32;33.92
72952;HTU21D;61102;51.956;5.878;2022-11-13T13:42:54;26.21;32.28
72952;HTU21D;61102;51.956;5.878;2022-11-13T13:48:27;26.68;31.66
72952;HTU21D;61102;51.956;5.878;2022-11-13T13:51:25;27.01;31.04
72952;HTU21D;61102;51.956;5.878;2022-11-13T13:54:19;27.45;31.03
72952;HTU21D;61102;51.956;5.878;2022-11-13T13:57:11;27.82;30.59
72952;HTU21D;61102;51.956;5.878;2022-11-13T13:59:56;28.03;30.28
72952;HTU21D;61102;51.956;5.878;2022-11-13T14:02:50;26.93;31.32
72952;HTU21D;61102;51.956;5.878;2022-11-13T14:05:35;25.52;33.18
72952;HTU21D;61102;51.956;5.878;2022-11-13T14:08:24;24.35;35.21
72952;HTU21D;61102;51.956;5.878;2022-11-13T14:14:08;22.49;37.64
72952;HTU21D;61102;51.956;5.878;2022-11-13T14:16:55;21.83;38.30
72952;HTU21D;61102;51.956;5.878;2022-11-13T14:19:48;21.27;38.94
72952;HTU21D;61102;51.956;5.878;2022-11-13T14:22:33;20.84;39.30
72952;HTU21D;61102;51.956;5.878;2022-11-13T14:25:25;20.46;39.90
72952;HTU21D;61102;51.956;5.878;2022-11-13T14:28:21;20.15;40.25
72952;HTU21D;61102;51.956;5.878;2022-11-13T14:31:09;19.86;40.46
72952;HTU21D;61102;51.956;5.878;2022-11-13T14:33:56;19.62;40.81
72952;HTU21D;61102;51.956;5.878;2022-11-13T14:36:43;19.44;41.05
72952;HTU21D;61102;51.956;5.878;2022-11-13T14:39:30;19.27;41.35
72952;HTU21D;61102;51.956;5.878;2022-11-13T14:42:21;19.10;41.40
72952;HTU21D;61102;51.956;5.878;2022-11-13T14:45:22;18.98;41.70
72952;HTU21D;61102;51.956;5.878;2022-11-13T14:48:18;19.30;40.93
72952;HTU21D;61102;51.956;5.878;2022-11-13T14:51:04;18.83;41.73
72952;HTU21D;61102;51.956;5.878;2022-11-13T14:53:58;18.65;42.21
72952;HTU21D;61102;51.956;5.878;2022-11-13T14:56:43;18.51;42.26
72952;HTU21D;61102;51.956;5.878;2022-11-13T14:59:28;18.38;42.42
72952;HTU21D;61102;51.956;5.878;2022-11-13T15:02:12;18.26;42.64
72952;HTU21D;61102;51.956;5.878;2022-11-13T15:04:57;18.17;42.82
72952;HTU21D;61102;51.956;5.878;2022-11-13T15:07:44;18.07;43.10
72952;HTU21D;61102;51.956;5.878;2022-11-13T15:10:30;17.96;43.35
72952;HTU21D;61102;51.956;5.878;2022-11-13T15:13:16;17.84;43.48
72952;HTU21D;61102;51.956;5.878;2022-11-13T15:16:01;17.75;43.70
72952;HTU21D;61102;51.956;5.878;2022-11-13T15:18:48;17.60;44.04
72952;HTU21D;61102;51.956;5.878;2022-11-13T15:21:34;17.51;44.14
72952;HTU21D;61102;51.956;5.878;2022-11-13T15:24:19;17.40;44.38
72952;HTU21D;61102;51.956;5.878;2022-11-13T15:27:03;17.31;44.54
72952;HTU21D;61102;51.956;5.878;2022-11-13T15:29:49;17.22;44.80
72952;HTU21D;61102;51.956;5.878;2022-11-13T15:32:34;17.07;44.91
72952;HTU21D;61102;51.956;5.878;2022-11-13T15:35:19;16.99;45.11
72952;HTU21D;61102;51.956;5.878;2022-11-13T15:38:03;16.93;45.29
72952;HTU21D;61102;51.956;5.878;2022-11-13T15:40:49;16.85;45.46
72952;HTU21D;61102;51.956;5.878;2022-11-13T15:43:33;16.79;45.72
72952;HTU21D;61102;51.956;5.878;2022-11-13T15:46:20;16.75;46.04
72952;HTU21D;61102;51.956;5.878;2022-11-13T15:49:05;16.74;46.35
72952;HTU21D;61102;51.956;5.878;2022-11-13T15:51:50;16.73;46.86
72952;HTU21D;61102;51.956;5.878;2022-11-13T15:54:36;16.67;47.22
72952;HTU21D;61102;51.956;5.878;2022-11-13T15:57:23;16.69;47.46
72952;HTU21D;61102;51.956;5.878;2022-11-13T16:00:13;16.66;47.89
72952;HTU21D;61102;51.956;5.878;2022-11-13T16:02:58;16.60;48.06
72952;HTU21D;61102;51.956;5.878;2022-11-13T16:05:42;16.56;48.20
72952;HTU21D;61102;51.956;5.878;2022-11-13T16:08:30;16.52;48.67
72952;HTU21D;61102;51.956;5.878;2022-11-13T16:11:16;16.46;49.01
72952;HTU21D;61102;51.956;5.878;2022-11-13T16:14:01;16.88;47.77
72952;HTU21D;61102;51.956;5.878;2022-11-13T16:16:45;16.51;48.49
72952;HTU21D;61102;51.956;5.878;2022-11-13T16:19:31;16.35;48.83
72952;HTU21D;61102;51.956;5.878;2022-11-13T16:22:25;16.27;49.46
72952;HTU21D;61102;51.956;5.878;2022-11-13T16:25:18;16.19;49.50
72952;HTU21D;61102;51.956;5.878;2022-11-13T16:28:03;16.16;49.45
72952;HTU21D;61102;51.956;5.878;2022-11-13T16:30:49;16.12;49.58
72952;HTU21D;61102;51.956;5.878;2022-11-13T16:33:34;16.05;49.66
72952;HTU21D;61102;51.956;5.878;2022-11-13T16:36:20;15.99;49.79
72952;HTU21D;61102;51.956;5.878;2022-11-13T16:39:08;15.96;49.78
72952;HTU21D;61102;51.956;5.878;2022-11-13T16:41:53;15.90;49.95
72952;HTU21D;61102;51.956;5.878;2022-11-13T16:44:38;15.84;50.07
72952;HTU21D;61102;51.956;5.878;2022-11-13T16:47:24;15.81;50.21
72952;HTU21D;61102;51.956;5.878;2022-11-13T16:50:25;15.78;50.50
72952;HTU21D;61102;51.956;5.878;2022-11-13T16:53:11;15.74;50.31
72952;HTU21D;61102;51.956;5.878;2022-11-13T16:55:56;15.67;50.37
72952;HTU21D;61102;51.956;5.878;2022-11-13T16:58:41;15.56;50.45
72952;HTU21D;61102;51.956;5.878;2022-11-13T17:01:26;15.45;50.52
72952;HTU21D;61102;51.956;5.878;2022-11-13T17:04:13;15.32;50.77
72952;HTU21D;61102;51.956;5.878;2022-11-13T17:06:59;15.23;50.82
72952;HTU21D;61102;51.956;5.878;2022-11-13T17:09:44;15.09;50.99
72952;HTU21D;61102;51.956;5.878;2022-11-13T17:12:29;15.06;51.01
72952;HTU21D;61102;51.956;5.878;2022-11-13T17:15:14;15.02;51.03
72952;HTU21D;61102;51.956;5.878;2022-11-13T17:17:59;14.98;51.26
72952;HTU21D;61102;51.956;5.878;2022-11-13T17:20:44;14.94;51.30
72952;HTU21D;61102;51.956;5.878;2022-11-13T17:23:28;14.93;51.32
72952;HTU21D;61102;51.956;5.878;2022-11-13T17:26:13;14.92;51.37
72952;HTU21D;61102;51.956;5.878;2022-11-13T17:28:58;14.89;51.40
72952;HTU21D;61102;51.956;5.878;2022-11-13T17:31:43;14.89;51.36
72952;HTU21D;61102;51.956;5.878;2022-11-13T17:34:28;14.93;51.35
72952;HTU21D;61102;51.956;5.878;2022-11-13T17:37:13;14.93;51.27
72952;HTU21D;61102;51.956;5.878;2022-11-13T17:39:57;14.94;51.27
72952;HTU21D;61102;51.956;5.878;2022-11-13T17:42:42;14.94;51.20
72952;HTU21D;61102;51.956;5.878;2022-11-13T17:45:27;14.95;51.17
72952;HTU21D;61102;51.956;5.878;2022-11-13T17:48:12;14.97;51.10
72952;HTU21D;61102;51.956;5.878;2022-11-13T17:50:59;14.95;51.08
72952;HTU21D;61102;51.956;5.878;2022-11-13T17:53:44;14.97;51.01
72952;HTU21D;61102;51.956;5.878;2022-11-13T17:56:30;14.94;51.04
72952;HTU21D;61102;51.956;5.878;2022-11-13T17:59:15;14.96;50.97
72952;HTU21D;61102;51.956;5.878;2022-11-13T18:02:00;14.93;50.99
72952;HTU21D;61102;51.956;5.878;2022-11-13T18:04:45;14.93;50.96
72952;HTU21D;61102;51.956;5.878;2022-11-13T18:07:30;14.93;50.96
72952;HTU21D;61102;51.956;5.878;2022-11-13T18:10:15;14.91;51.01
72952;HTU21D;61102;51.956;5.878;2022-11-13T18:13:01;14.91;50.96
72952;HTU21D;61102;51.956;5.878;2022-11-13T18:15:48;14.87;50.95
72952;HTU21D;61102;51.956;5.878;2022-11-13T18:18:34;14.87;50.95
72952;HTU21D;61102;51.956;5.878;2022-11-13T18:21:24;14.84;51.01